createdAt,value
2023-03-28T00:01:12.855Z,3.50
2023-03-28T00:03:42.462Z,3.00
2023-03-28T00:06:12.396Z,3.22
2023-03-28T00:08:41.353Z,3.95
2023-03-28T00:11:12.544Z,3.03
2023-03-28T00:13:40.777Z,2.30
2023-03-28T00:16:12.969Z,3.13
2023-03-28T00:18:43.438Z,2.78
2023-03-28T00:21:23.825Z,3.83
2023-03-28T00:23:53.477Z,3.00
2023-03-28T00:26:24.600Z,4.50
2023-03-28T00:28:53.163Z,3.70
2023-03-28T00:31:21.835Z,4.13
2023-03-28T00:33:51.482Z,3.67
2023-03-28T00:36:26.439Z,3.33
2023-03-28T00:38:54.929Z,3.83
2023-03-28T00:41:24.296Z,3.25
2023-03-28T00:43:55.561Z,5.07
2023-03-28T00:46:29.743Z,3.63
2023-03-28T00:49:03.514Z,4.35
2023-03-28T00:51:34.633Z,5.68
2023-03-28T00:54:05.775Z,5.32
2023-03-28T00:56:36.930Z,3.40
2023-03-28T00:59:09.025Z,5.47
2023-03-28T01:01:37.586Z,4.93
2023-03-28T01:04:10.042Z,4.72
2023-03-28T01:06:42.653Z,5.07
2023-03-28T01:09:16.640Z,5.47
2023-03-28T01:11:51.054Z,9.27
2023-03-28T01:14:22.210Z,10.48
2023-03-28T01:16:52.616Z,7.68
2023-03-28T01:19:36.098Z,6.38
2023-03-28T01:22:56.596Z,3.85
2023-03-28T01:26:03.329Z,4.85
2023-03-28T01:28:52.376Z,3.03
2023-03-28T01:31:46.351Z,4.03
2023-03-28T01:35:09.536Z,4.40
2023-03-28T01:37:43.553Z,3.53
2023-03-28T01:40:29.842Z,3.53
2023-03-28T01:43:14.639Z,3.70
2023-03-28T01:45:52.319Z,4.05
2023-03-28T01:48:30.419Z,4.13
2023-03-28T01:51:10.425Z,3.00
2023-03-28T01:53:45.960Z,4.88
2023-03-28T01:56:22.361Z,2.45
2023-03-28T01:58:59.661Z,3.42
2023-03-28T02:01:50.313Z,3.65
2023-03-28T02:04:21.775Z,3.83
2023-03-28T02:06:58.338Z,3.00
2023-03-28T02:09:34.766Z,3.70
2023-03-28T02:12:23.810Z,3.72
2023-03-28T02:15:13.822Z,3.47
2023-03-28T02:18:21.563Z,0.98
2023-03-28T02:21:03.311Z,3.45
2023-03-28T02:24:09.710Z,5.38
2023-03-28T02:26:47.665Z,3.83
2023-03-28T02:29:28.404Z,4.82
2023-03-28T02:31:59.842Z,4.90
2023-03-28T02:34:28.380Z,4.70
2023-03-28T02:37:04.897Z,4.32
2023-03-28T02:39:49.487Z,4.90
2023-03-28T02:43:02.485Z,3.72
2023-03-28T02:46:06.749Z,4.00
2023-03-28T02:49:07.041Z,4.53
2023-03-28T02:51:41.716Z,5.60
2023-03-28T02:54:24.619Z,4.38
2023-03-28T02:57:18.394Z,4.28
2023-03-28T02:59:55.992Z,4.18
2023-03-28T03:02:24.945Z,2.70
2023-03-28T03:04:57.533Z,2.65
2023-03-28T03:07:27.017Z,3.45
2023-03-28T03:09:55.469Z,3.72
2023-03-28T03:12:25.272Z,3.75
2023-03-28T03:15:01.058Z,5.15
2023-03-28T03:17:48.069Z,4.22
2023-03-28T03:20:19.452Z,4.68
2023-03-28T03:22:47.673Z,4.72
2023-03-28T03:25:16.230Z,4.43
2023-03-28T03:27:55.057Z,5.10
2023-03-28T03:30:24.881Z,6.63
2023-03-28T03:33:16.853Z,6.40
2023-03-28T03:35:47.161Z,5.97
2023-03-28T03:38:16.548Z,6.80
2023-03-28T03:40:44.782Z,5.55
2023-03-28T03:43:14.138Z,6.07
2023-03-28T03:45:45.885Z,5.15
2023-03-28T03:48:14.557Z,5.95
2023-03-28T03:50:42.829Z,5.10
2023-03-28T03:53:14.630Z,4.65
2023-03-28T03:55:55.517Z,5.18
2023-03-28T03:58:24.063Z,4.82
2023-03-28T04:00:53.680Z,1.48
2023-03-28T04:03:39.907Z,2.88
2023-03-28T04:06:08.854Z,4.47
2023-03-28T04:08:37.676Z,2.92
2023-03-28T04:11:07.867Z,4.88
2023-03-28T04:13:40.520Z,5.50
2023-03-28T04:16:11.890Z,4.97
2023-03-28T04:18:50.969Z,7.93
2023-03-28T04:21:27.448Z,4.32
2023-03-28T04:23:57.562Z,4.88
2023-03-28T04:26:41.647Z,7.40
2023-03-28T04:29:13.593Z,2.35
2023-03-28T04:31:50.695Z,2.53
2023-03-28T04:34:39.173Z,4.10
2023-03-28T04:37:10.407Z,4.50
2023-03-28T04:39:48.011Z,4.18
2023-03-28T04:42:35.672Z,3.55
2023-03-28T04:45:17.896Z,4.43
2023-03-28T04:47:50.064Z,2.42
2023-03-28T04:50:23.080Z,4.07
2023-03-28T04:52:51.257Z,2.78
2023-03-28T04:55:20.107Z,4.43
2023-03-28T04:57:50.444Z,6.88
2023-03-28T05:00:22.267Z,5.20
2023-03-28T05:03:13.441Z,2.15
2023-03-28T05:05:54.181Z,5.55
2023-03-28T05:08:24.497Z,3.60
2023-03-28T05:10:53.003Z,6.68
2023-03-28T05:13:23.478Z,3.53
2023-03-28T05:16:03.257Z,2.25
2023-03-28T05:18:51.353Z,2.20
2023-03-28T05:21:25.794Z,2.83
2023-03-28T05:23:54.621Z,1.50
2023-03-28T05:26:26.038Z,2.10
2023-03-28T05:28:54.662Z,2.38
2023-03-28T05:31:25.910Z,2.60
2023-03-28T05:34:08.774Z,2.58
2023-03-28T05:36:45.019Z,0.22
2023-03-28T05:39:23.614Z,1.75
2023-03-28T05:41:54.545Z,1.30
2023-03-28T05:44:22.750Z,2.03
2023-03-28T05:47:26.105Z,2.17
2023-03-28T05:49:55.811Z,1.83
2023-03-28T05:52:24.239Z,2.78
2023-03-28T05:54:53.364Z,3.45
2023-03-28T05:57:23.322Z,1.80
2023-03-28T05:59:52.033Z,3.28
2023-03-28T06:02:24.277Z,5.15
2023-03-28T06:05:00.055Z,3.88
2023-03-28T06:07:41.292Z,2.25
2023-03-28T06:10:13.072Z,3.40
2023-03-28T06:12:44.229Z,4.75
2023-03-28T06:15:13.143Z,2.63
2023-03-28T06:17:45.432Z,6.18
2023-03-28T06:20:15.268Z,3.60
2023-03-28T06:22:43.502Z,4.93
2023-03-28T06:25:12.680Z,1.42
2023-03-28T06:27:42.090Z,1.85
2023-03-28T06:30:11.337Z,2.97
2023-03-28T06:32:49.457Z,2.13
2023-03-28T06:35:21.766Z,2.45
2023-03-28T06:37:50.290Z,3.00
2023-03-28T06:40:25.268Z,4.10
2023-03-28T06:42:53.743Z,2.45
2023-03-28T06:45:30.983Z,3.97
2023-03-28T06:48:03.987Z,2.83
2023-03-28T06:50:55.380Z,2.78
2023-03-28T06:53:26.484Z,1.77
2023-03-28T06:56:01.225Z,1.20
2023-03-28T06:58:31.757Z,3.35
2023-03-28T07:01:07.831Z,3.33
2023-03-28T07:04:05.015Z,1.60
2023-03-28T07:06:37.834Z,3.03
2023-03-28T07:09:06.906Z,2.55
2023-03-28T07:12:01.295Z,2.97
2023-03-28T07:14:29.572Z,2.58
2023-03-28T07:16:58.106Z,2.15
2023-03-28T07:19:27.769Z,2.63
2023-03-28T07:21:57.453Z,2.03
2023-03-28T07:24:25.848Z,2.70
2023-03-28T07:27:15.761Z,2.05
2023-03-28T07:29:46.319Z,1.05
2023-03-28T07:32:15.242Z,2.13
2023-03-28T07:34:46.253Z,3.10
2023-03-28T07:37:21.686Z,1.25
2023-03-28T07:39:57.796Z,1.42
2023-03-28T07:42:28.773Z,2.25
2023-03-28T07:45:00.158Z,1.25
2023-03-28T07:47:31.179Z,2.08
2023-03-28T07:49:59.427Z,2.00
2023-03-28T07:52:30.050Z,2.10
2023-03-28T07:54:58.313Z,1.77
2023-03-28T07:57:28.132Z,2.70
2023-03-28T08:00:17.417Z,1.67
2023-03-28T08:03:05.859Z,1.90
2023-03-28T08:05:37.582Z,0.95
2023-03-28T08:08:10.554Z,1.73
2023-03-28T08:10:38.772Z,1.67
2023-03-28T08:13:07.044Z,0.93
2023-03-28T08:15:35.416Z,1.33
2023-03-28T08:18:03.818Z,1.77
2023-03-28T08:20:33.670Z,0.45
2023-03-28T08:23:13.170Z,1.42
2023-03-28T08:25:41.370Z,1.05
2023-03-28T08:28:09.951Z,0.77
2023-03-28T08:30:38.430Z,0.85
2023-03-28T08:33:07.303Z,0.50
2023-03-28T08:35:38.365Z,0.73
2023-03-28T08:38:16.259Z,0.82
2023-03-28T08:40:50.117Z,0.80
2023-03-28T08:43:33.842Z,1.23
2023-03-28T08:46:03.465Z,1.40
2023-03-28T08:48:38.274Z,0.73
2023-03-28T08:51:18.393Z,1.00
2023-03-28T08:53:52.829Z,0.65
2023-03-28T08:56:21.451Z,1.15
2023-03-28T08:58:57.989Z,0.85
2023-03-28T09:01:29.210Z,0.90
2023-03-28T09:03:57.746Z,1.00
2023-03-28T09:06:33.148Z,0.85
2023-03-28T09:09:23.800Z,1.02
2023-03-28T09:12:24.231Z,0.70
2023-03-28T09:15:28.082Z,0.85
2023-03-28T09:18:14.502Z,0.65
2023-03-28T09:20:50.051Z,0.65
2023-03-28T09:24:03.666Z,0.60
2023-03-28T09:26:58.549Z,0.68
2023-03-28T09:29:28.675Z,1.30
2023-03-28T09:32:02.221Z,0.93
2023-03-28T09:34:39.109Z,1.20
2023-03-28T09:37:30.021Z,0.90
2023-03-28T09:40:02.412Z,0.88
2023-03-28T09:42:52.100Z,0.70
2023-03-28T09:45:49.673Z,0.93
2023-03-28T09:48:41.306Z,1.33
2023-03-28T09:51:17.062Z,0.80
2023-03-28T09:53:47.633Z,0.75
2023-03-28T09:56:27.447Z,1.00
2023-03-28T09:59:03.322Z,0.73
2023-03-28T10:01:43.699Z,1.05
2023-03-28T10:04:47.262Z,0.90
2023-03-28T10:07:42.496Z,1.13
2023-03-28T10:10:29.702Z,1.27
2023-03-28T10:13:11.633Z,1.10
2023-03-28T10:15:48.200Z,0.93
2023-03-28T10:18:35.900Z,0.70
2023-03-28T10:21:28.439Z,0.70
2023-03-28T10:24:21.662Z,0.93
2023-03-28T10:27:09.702Z,0.70
2023-03-28T10:29:38.986Z,0.60
2023-03-28T10:32:13.614Z,0.95
2023-03-28T10:34:58.649Z,0.77
2023-03-28T10:37:36.399Z,0.70
2023-03-28T10:40:29.999Z,0.93
2023-03-28T10:43:37.581Z,0.88
2023-03-28T10:46:20.026Z,2.15
2023-03-28T10:49:14.481Z,10.02
2023-03-28T10:51:49.196Z,0.90
2023-03-28T10:54:37.163Z,1.42
2023-03-28T10:57:16.825Z,1.23
2023-03-28T10:59:54.542Z,0.98
2023-03-28T11:02:50.113Z,0.93
2023-03-28T11:05:41.233Z,0.50
2023-03-28T11:08:33.862Z,0.45
2023-03-28T11:11:27.258Z,0.93
2023-03-28T11:14:05.495Z,1.00
2023-03-28T11:16:45.968Z,1.33
2023-03-28T11:19:49.837Z,0.40
2023-03-28T11:22:30.044Z,0.43
2023-03-28T11:25:08.758Z,1.05
2023-03-28T11:28:15.036Z,0.80
2023-03-28T11:30:50.620Z,1.23
2023-03-28T11:33:37.022Z,0.70
2023-03-28T11:36:19.033Z,1.02
2023-03-28T11:38:51.805Z,0.55
2023-03-28T11:41:26.131Z,0.52
2023-03-28T11:44:19.046Z,0.45
2023-03-28T11:46:52.102Z,0.80
2023-03-28T11:49:29.875Z,0.73
2023-03-28T11:52:03.704Z,0.68
2023-03-28T11:54:40.151Z,0.65
2023-03-28T11:57:17.081Z,1.42
2023-03-28T12:00:11.418Z,0.85
2023-03-28T12:02:51.589Z,0.82
2023-03-28T12:05:30.731Z,0.57
2023-03-28T12:08:05.463Z,0.55
2023-03-28T12:10:37.070Z,0.82
2023-03-28T12:13:16.038Z,0.90
2023-03-28T12:16:00.460Z,0.60
2023-03-28T12:18:33.444Z,0.70
2023-03-28T12:21:08.969Z,0.98
2023-03-28T12:23:56.697Z,0.88
2023-03-28T12:26:37.288Z,0.57
2023-03-28T12:29:15.248Z,0.70
2023-03-28T12:31:48.591Z,1.10
2023-03-28T12:34:30.000Z,1.02
2023-03-28T12:37:29.998Z,0.60
2023-03-28T12:40:19.968Z,0.90
2023-03-28T12:42:51.341Z,0.90
2023-03-28T12:45:25.573Z,1.02
2023-03-28T12:48:00.032Z,1.13
2023-03-28T12:50:32.731Z,1.80
2023-03-28T12:53:05.321Z,1.15
2023-03-28T12:55:45.234Z,0.98
2023-03-28T12:58:28.052Z,0.55
2023-03-28T13:01:31.428Z,0.98
2023-03-28T13:04:23.296Z,1.35
2023-03-28T13:07:08.371Z,1.33
2023-03-28T13:10:00.479Z,0.70
2023-03-28T13:12:43.466Z,1.13
2023-03-28T13:15:31.908Z,0.77
2023-03-28T13:18:25.841Z,0.90
2023-03-28T13:20:56.002Z,0.57
2023-03-28T13:23:31.236Z,1.17
2023-03-28T13:26:03.023Z,0.50
2023-03-28T13:28:34.226Z,1.00
2023-03-28T13:31:10.060Z,1.38
2023-03-28T13:33:40.120Z,0.77
2023-03-28T13:36:27.669Z,1.20
2023-03-28T13:39:22.471Z,1.20
2023-03-28T13:41:59.135Z,0.95
2023-03-28T13:44:34.738Z,1.30
2023-03-28T13:47:05.305Z,0.43
2023-03-28T13:49:39.372Z,0.55
2023-03-28T13:52:11.556Z,0.50
2023-03-28T13:54:39.741Z,1.08
2023-03-28T13:57:13.746Z,1.10
2023-03-28T13:59:50.288Z,0.85
2023-03-28T14:02:22.349Z,0.68
2023-03-28T14:04:53.032Z,0.90
2023-03-28T14:07:28.492Z,0.57
2023-03-28T14:09:58.168Z,1.48
2023-03-28T14:12:29.910Z,0.45
2023-03-28T14:15:00.990Z,1.85
2023-03-28T14:17:36.331Z,0.70
2023-03-28T14:20:07.339Z,1.52
2023-03-28T14:22:52.854Z,0.70
2023-03-28T14:25:26.404Z,1.77
2023-03-28T14:27:57.370Z,1.65
2023-03-28T14:30:28.511Z,0.73
2023-03-28T14:33:00.377Z,1.13
2023-03-28T14:35:31.246Z,0.90
2023-03-28T14:38:01.591Z,2.17
2023-03-28T14:40:33.944Z,1.75
2023-03-28T14:43:05.429Z,3.10
2023-03-28T14:45:37.706Z,1.30
2023-03-28T14:48:13.974Z,0.77
2023-03-28T14:50:42.750Z,2.03
2023-03-28T14:53:20.839Z,1.88
2023-03-28T14:55:51.028Z,1.10
2023-03-28T14:58:22.546Z,1.33
2023-03-28T15:00:54.284Z,1.63
2023-03-28T15:03:32.253Z,0.85
2023-03-28T15:06:01.914Z,1.10
2023-03-28T15:08:34.529Z,1.05
2023-03-28T15:11:06.528Z,1.95
2023-03-28T15:13:37.858Z,0.75
2023-03-28T15:16:09.063Z,1.27
2023-03-28T15:18:44.679Z,1.27
2023-03-28T15:21:12.980Z,1.95
2023-03-28T15:23:46.138Z,1.75
2023-03-28T15:26:20.899Z,1.67
2023-03-28T15:28:49.802Z,1.35
2023-03-28T15:31:18.258Z,1.48
2023-03-28T15:33:48.518Z,1.75
2023-03-28T15:36:20.391Z,2.35
2023-03-28T15:38:52.206Z,1.52
2023-03-28T15:41:23.457Z,1.20
2023-03-28T15:44:11.380Z,1.08
2023-03-28T15:46:40.370Z,1.67
2023-03-28T15:49:12.714Z,0.77
2023-03-28T15:51:50.387Z,1.13
2023-03-28T15:54:30.348Z,1.42
2023-03-28T15:57:03.049Z,1.58
2023-03-28T15:59:36.236Z,1.27
2023-03-28T16:02:33.060Z,0.80
2023-03-28T16:05:04.480Z,0.85
2023-03-28T16:07:37.275Z,0.85
2023-03-28T16:10:06.517Z,0.70
2023-03-28T16:12:45.917Z,1.35
2023-03-28T16:15:34.103Z,1.60
2023-03-28T16:18:14.469Z,2.05
2023-03-28T16:20:53.603Z,2.38
2023-03-28T16:23:21.792Z,1.30
2023-03-28T16:25:49.994Z,0.88
2023-03-28T16:28:19.527Z,0.20
2023-03-28T16:30:47.748Z,1.70
2023-03-28T16:33:16.964Z,0.90
2023-03-28T16:35:45.332Z,1.75
2023-03-28T16:38:14.891Z,1.33
2023-03-28T16:40:45.279Z,1.05
2023-03-28T16:43:15.405Z,1.77
2023-03-28T16:45:46.682Z,1.70
2023-03-28T16:48:14.971Z,1.48
2023-03-28T16:51:00.171Z,2.00
2023-03-28T16:53:29.702Z,3.03
2023-03-28T16:55:57.969Z,1.38
2023-03-28T16:58:28.421Z,1.73
2023-03-28T17:00:58.596Z,1.70
2023-03-28T17:03:26.869Z,1.40
2023-03-28T17:05:55.332Z,2.05
2023-03-28T17:08:23.998Z,2.15
2023-03-28T17:10:53.550Z,1.50
2023-03-28T17:13:21.736Z,1.00
2023-03-28T17:15:51.898Z,1.88
2023-03-28T17:18:21.897Z,1.85
2023-03-28T17:20:59.647Z,1.65
2023-03-28T17:23:29.072Z,1.13
2023-03-28T17:25:59.314Z,0.95
2023-03-28T17:28:28.753Z,1.50
2023-03-28T17:30:57.055Z,2.50
2023-03-28T17:33:25.647Z,2.00
2023-03-28T17:35:53.836Z,1.02
2023-03-28T17:38:22.285Z,1.33
2023-03-28T17:40:50.924Z,1.83
2023-03-28T17:43:20.504Z,0.68
2023-03-28T17:45:54.891Z,1.70
2023-03-28T17:48:23.089Z,2.28
2023-03-28T17:50:53.660Z,1.45
2023-03-28T17:53:22.297Z,4.25
2023-03-28T17:55:50.499Z,1.98
2023-03-28T17:58:20.327Z,2.45
2023-03-28T18:00:48.527Z,1.40
2023-03-28T18:03:17.673Z,1.10
2023-03-28T18:06:04.660Z,1.58
2023-03-28T18:08:34.124Z,1.55
2023-03-28T18:11:02.856Z,1.63
2023-03-28T18:13:32.498Z,1.92
2023-03-28T18:16:04.266Z,2.53
2023-03-28T18:18:33.209Z,2.50
2023-03-28T18:21:01.421Z,2.53
2023-03-28T18:23:29.739Z,2.33
2023-03-28T18:25:58.692Z,0.70
2023-03-28T18:28:27.406Z,2.22
2023-03-28T18:30:58.090Z,1.60
2023-03-28T18:33:27.386Z,1.40
2023-03-28T18:35:56.823Z,0.98
2023-03-28T18:38:25.216Z,1.48
2023-03-28T18:40:54.250Z,1.13
2023-03-28T18:43:23.767Z,1.58
2023-03-28T18:45:56.735Z,6.78
2023-03-28T18:48:25.013Z,1.58
2023-03-28T18:50:53.488Z,1.67
2023-03-28T18:53:22.417Z,1.45
2023-03-28T18:55:51.398Z,4.97
2023-03-28T18:58:20.005Z,2.53
2023-03-28T19:00:48.413Z,1.95
2023-03-28T19:03:18.875Z,1.00
2023-03-28T19:05:47.224Z,1.90
2023-03-28T19:08:15.612Z,2.40
2023-03-28T19:10:46.901Z,2.05
2023-03-28T19:13:15.148Z,2.22
2023-03-28T19:15:43.299Z,1.80
2023-03-28T19:18:12.023Z,1.85
2023-03-28T19:20:41.801Z,2.50
2023-03-28T19:23:17.465Z,1.98
2023-03-28T19:25:45.797Z,1.75
2023-03-28T19:28:14.015Z,2.05
2023-03-28T19:30:42.258Z,2.10
2023-03-28T19:33:10.738Z,1.27
2023-03-28T19:35:42.289Z,2.28
2023-03-28T19:38:10.493Z,1.35
2023-03-28T19:40:38.643Z,1.77
2023-03-28T19:43:06.810Z,1.52
2023-03-28T19:45:34.997Z,1.65
2023-03-28T19:48:03.166Z,1.38
2023-03-28T19:50:33.461Z,1.83
2023-03-28T19:53:03.056Z,2.00
2023-03-28T19:55:31.211Z,1.60
2023-03-28T19:57:59.371Z,1.65
2023-03-28T20:00:27.646Z,2.17
2023-03-28T20:02:55.949Z,2.20
2023-03-28T20:05:24.120Z,1.98
2023-03-28T20:07:52.403Z,1.98
2023-03-28T20:10:21.936Z,4.30
2023-03-28T20:12:50.077Z,3.58
2023-03-28T20:15:20.187Z,3.60
2023-03-28T20:17:48.788Z,3.92
2023-03-28T20:20:19.450Z,5.50
2023-03-28T20:22:47.622Z,4.85
2023-03-28T20:25:16.027Z,4.82
2023-03-28T20:27:47.557Z,4.45
2023-03-28T20:30:18.221Z,4.88
2023-03-28T20:32:49.384Z,4.15
2023-03-28T20:35:21.033Z,5.15
2023-03-28T20:37:50.762Z,4.18
2023-03-28T20:40:19.054Z,1.27
2023-03-28T20:42:50.534Z,5.40
2023-03-28T20:45:23.031Z,3.85
2023-03-28T20:47:56.457Z,4.47
2023-03-28T20:50:25.866Z,4.20
2023-03-28T20:52:54.234Z,5.63
2023-03-28T20:55:25.773Z,3.38
2023-03-28T20:57:56.017Z,5.45
2023-03-28T21:00:24.842Z,5.55
2023-03-28T21:02:55.140Z,5.65
2023-03-28T21:05:24.967Z,3.17
2023-03-28T21:07:53.586Z,4.15
2023-03-28T21:10:25.115Z,3.15
2023-03-28T21:12:53.327Z,5.40
2023-03-28T21:15:24.529Z,5.15
2023-03-28T21:17:53.592Z,4.53
2023-03-28T21:20:22.136Z,5.68
2023-03-28T21:22:50.304Z,5.35
2023-03-28T21:25:19.102Z,6.03
2023-03-28T21:27:47.338Z,3.55
2023-03-28T21:30:16.613Z,2.92
2023-03-28T21:32:47.664Z,4.57
2023-03-28T21:35:16.305Z,6.85
2023-03-28T21:37:44.460Z,2.40
2023-03-28T21:40:13.328Z,2.28
2023-03-28T21:42:41.726Z,1.85
2023-03-28T21:45:11.647Z,0.55
2023-03-28T21:47:41.419Z,2.20
2023-03-28T21:50:14.401Z,2.08
2023-03-28T21:52:43.155Z,4.35
2023-03-28T21:55:11.481Z,5.20
2023-03-28T21:57:39.846Z,2.30
2023-03-28T22:00:15.162Z,1.70
2023-03-28T22:02:43.555Z,2.03
2023-03-28T22:05:22.607Z,1.30
2023-03-28T22:07:56.709Z,1.35
2023-03-28T22:10:26.536Z,1.52
2023-03-28T22:12:58.649Z,1.20
2023-03-28T22:15:27.217Z,1.20
2023-03-28T22:17:59.046Z,2.08
2023-03-28T22:20:29.855Z,2.05
2023-03-28T22:23:00.527Z,2.03
2023-03-28T22:25:35.632Z,1.50
2023-03-28T22:28:04.794Z,1.88
2023-03-28T22:30:33.374Z,1.58
2023-03-28T22:33:04.468Z,1.88
2023-03-28T22:35:34.537Z,1.73
2023-03-28T22:38:02.873Z,2.22
2023-03-28T22:40:31.825Z,2.15
2023-03-28T22:43:00.198Z,2.80
2023-03-28T22:45:28.647Z,3.08
2023-03-28T22:48:00.054Z,2.67
2023-03-28T22:50:29.279Z,2.78
2023-03-28T22:53:02.123Z,3.00
2023-03-28T22:55:30.387Z,2.80
2023-03-28T22:57:58.531Z,3.60
2023-03-28T23:00:27.110Z,3.65
2023-03-28T23:02:57.793Z,2.75
2023-03-28T23:05:26.043Z,3.20
2023-03-28T23:07:55.311Z,3.88
2023-03-28T23:10:24.897Z,3.58
2023-03-28T23:12:53.126Z,3.78
2023-03-28T23:15:21.434Z,1.73
2023-03-28T23:17:50.299Z,3.20
2023-03-28T23:20:19.151Z,2.45
2023-03-28T23:22:49.257Z,3.45
2023-03-28T23:25:19.365Z,3.35
2023-03-28T23:27:49.121Z,4.32
2023-03-28T23:30:17.956Z,1.90
2023-03-28T23:32:46.263Z,3.63
2023-03-28T23:35:14.536Z,3.53
2023-03-28T23:37:42.716Z,5.45
2023-03-28T23:40:14.881Z,3.97
2023-03-28T23:42:45.148Z,4.28
2023-03-28T23:45:16.423Z,3.00
2023-03-28T23:47:45.146Z,2.65
2023-03-28T23:50:14.252Z,5.53
2023-03-28T23:52:42.622Z,3.75
2023-03-28T23:55:11.030Z,4.25
2023-03-28T23:57:39.229Z,4.63
